sensor_id;sensor_type;location;lat;lon;timestamp;P1;durP1;ratioP1;P2;durP2;ratioP2
12966;SDS011;6548;49.996;8.238;2022-11-20T02:51:22;32.55;;;15.55;;
12966;SDS011;6548;49.996;8.238;2022-11-20T03:02:04;33.25;;;16.20;;
12966;SDS011;6548;49.996;8.238;2022-11-20T03:12:32;36.83;;;17.25;;
12966;SDS011;6548;49.996;8.238;2022-11-20T15:17:14;24.27;;;13.27;;
12966;SDS011;6548;49.996;8.238;2022-11-20T15:24:29;27.50;;;12.52;;
12966;SDS011;6548;49.996;8.238;2022-11-20T15:26:57;27.42;;;14.63;;
12966;SDS011;6548;49.996;8.238;2022-11-20T15:29:22;27.73;;;14.50;;
12966;SDS011;6548;49.996;8.238;2022-11-20T15:31:49;29.17;;;13.88;;
12966;SDS011;6548;49.996;8.238;2022-11-20T19:48:07;5.25;;;0.82;;
12966;SDS011;6548;49.996;8.238;2022-11-20T19:50:33;1.00;;;0.50;;
12966;SDS011;6548;49.996;8.238;2022-11-20T19:52:58;1.23;;;0.40;;
12966;SDS011;6548;49.996;8.238;2022-11-20T19:55:24;0.73;;;0.40;;
12966;SDS011;6548;49.996;8.238;2022-11-20T19:57:50;0.73;;;0.73;;
12966;SDS011;6548;49.996;8.238;2022-11-20T20:00:15;0.73;;;0.60;;
12966;SDS011;6548;49.996;8.238;2022-11-20T20:02:41;2.13;;;0.63;;
12966;SDS011;6548;49.996;8.238;2022-11-20T20:05:07;0.55;;;0.52;;
12966;SDS011;6548;49.996;8.238;2022-11-20T20:07:32;0.47;;;0.40;;
12966;SDS011;6548;49.996;8.238;2022-11-20T20:09:58;0.65;;;0.60;;
12966;SDS011;6548;49.996;8.238;2022-11-20T21:30:27;1.67;;;0.60;;
12966;SDS011;6548;49.996;8.238;2022-11-20T21:32:52;0.88;;;0.57;;
12966;SDS011;6548;49.996;8.238;2022-11-20T21:35:19;1.27;;;0.30;;
12966;SDS011;6548;49.996;8.238;2022-11-20T21:37:45;0.73;;;0.43;;
12966;SDS011;6548;49.996;8.238;2022-11-20T21:40:10;3.53;;;0.82;;
12966;SDS011;6548;49.996;8.238;2022-11-20T21:42:36;3.10;;;0.60;;
12966;SDS011;6548;49.996;8.238;2022-11-20T21:45:02;2.13;;;1.02;;
12966;SDS011;6548;49.996;8.238;2022-11-20T21:47:27;3.13;;;0.77;;
12966;SDS011;6548;49.996;8.238;2022-11-20T21:49:53;2.03;;;0.93;;
12966;SDS011;6548;49.996;8.238;2022-11-20T21:52:18;2.78;;;0.90;;
12966;SDS011;6548;49.996;8.238;2022-11-20T21:54:44;1.55;;;1.20;;
12966;SDS011;6548;49.996;8.238;2022-11-20T21:57:10;2.10;;;1.27;;
12966;SDS011;6548;49.996;8.238;2022-11-20T21:59:35;1.52;;;0.73;;
12966;SDS011;6548;49.996;8.238;2022-11-20T22:02:01;5.15;;;1.45;;
12966;SDS011;6548;49.996;8.238;2022-11-20T22:04:27;7.38;;;1.08;;
12966;SDS011;6548;49.996;8.238;2022-11-20T22:06:52;0.93;;;0.57;;
12966;SDS011;6548;49.996;8.238;2022-11-20T22:09:18;3.72;;;1.02;;
12966;SDS011;6548;49.996;8.238;2022-11-20T22:11:44;2.15;;;1.10;;
12966;SDS011;6548;49.996;8.238;2022-11-20T22:14:09;3.15;;;0.88;;
12966;SDS011;6548;49.996;8.238;2022-11-20T22:16:45;2.70;;;1.35;;
12966;SDS011;6548;49.996;8.238;2022-11-20T22:19:13;0.70;;;0.70;;
12966;SDS011;6548;49.996;8.238;2022-11-20T22:21:39;2.20;;;0.80;;
12966;SDS011;6548;49.996;8.238;2022-11-20T22:24:06;4.72;;;1.27;;
12966;SDS011;6548;49.996;8.238;2022-11-20T22:26:34;3.50;;;1.20;;
12966;SDS011;6548;49.996;8.238;2022-11-20T22:29:00;3.15;;;1.75;;
12966;SDS011;6548;49.996;8.238;2022-11-20T22:31:26;2.92;;;0.70;;
12966;SDS011;6548;49.996;8.238;2022-11-20T22:33:53;3.88;;;1.60;;
12966;SDS011;6548;49.996;8.238;2022-11-20T22:36:21;5.88;;;0.93;;
12966;SDS011;6548;49.996;8.238;2022-11-20T22:38:48;2.67;;;0.80;;
12966;SDS011;6548;49.996;8.238;2022-11-20T22:41:18;2.17;;;1.00;;
12966;SDS011;6548;49.996;8.238;2022-11-20T22:43:45;3.00;;;0.98;;
12966;SDS011;6548;49.996;8.238;2022-11-20T22:46:18;2.75;;;1.10;;
12966;SDS011;6548;49.996;8.238;2022-11-20T22:48:51;4.25;;;1.17;;
12966;SDS011;6548;49.996;8.238;2022-11-20T22:51:19;2.85;;;0.95;;
12966;SDS011;6548;49.996;8.238;2022-11-20T22:53:49;3.50;;;1.05;;
12966;SDS011;6548;49.996;8.238;2022-11-20T22:56:15;4.45;;;1.00;;
12966;SDS011;6548;49.996;8.238;2022-11-20T22:58:42;1.77;;;1.05;;
12966;SDS011;6548;49.996;8.238;2022-11-20T23:01:13;2.25;;;0.73;;
12966;SDS011;6548;49.996;8.238;2022-11-20T23:03:40;2.50;;;0.60;;
12966;SDS011;6548;49.996;8.238;2022-11-20T23:06:08;6.28;;;0.90;;
12966;SDS011;6548;49.996;8.238;2022-11-20T23:08:34;3.88;;;1.10;;
12966;SDS011;6548;49.996;8.238;2022-11-20T23:11:02;4.15;;;1.00;;
12966;SDS011;6548;49.996;8.238;2022-11-20T23:13:32;1.35;;;1.00;;
12966;SDS011;6548;49.996;8.238;2022-11-20T23:16:03;2.25;;;0.95;;
12966;SDS011;6548;49.996;8.238;2022-11-20T23:18:30;7.32;;;2.38;;
12966;SDS011;6548;49.996;8.238;2022-11-20T23:20:56;0.73;;;0.40;;
12966;SDS011;6548;49.996;8.238;2022-11-20T23:23:27;2.00;;;0.55;;
12966;SDS011;6548;49.996;8.238;2022-11-20T23:25:53;5.97;;;2.92;;
12966;SDS011;6548;49.996;8.238;2022-11-20T23:28:18;3.92;;;0.63;;
12966;SDS011;6548;49.996;8.238;2022-11-20T23:30:45;1.15;;;0.50;;
12966;SDS011;6548;49.996;8.238;2022-11-20T23:33:11;0.98;;;0.80;;
12966;SDS011;6548;49.996;8.238;2022-11-20T23:35:37;2.13;;;0.50;;
12966;SDS011;6548;49.996;8.238;2022-11-20T23:38:04;0.30;;;0.30;;
12966;SDS011;6548;49.996;8.238;2022-11-20T23:40:29;1.30;;;0.45;;
12966;SDS011;6548;49.996;8.238;2022-11-20T23:42:55;0.40;;;0.30;;
12966;SDS011;6548;49.996;8.238;2022-11-20T23:45:38;0.17;;;0.13;;
12966;SDS011;6548;49.996;8.238;2022-11-20T23:48:14;1.20;;;0.10;;
12966;SDS011;6548;49.996;8.238;2022-11-20T23:50:54;0.30;;;0.30;;
12966;SDS011;6548;49.996;8.238;2022-11-20T23:53:19;0.77;;;0.20;;
12966;SDS011;6548;49.996;8.238;2022-11-20T23:55:47;0.15;;;0.13;;
12966;SDS011;6548;49.996;8.238;2022-11-20T23:58:14;0.63;;;0.10;;
